createdAt,value
2023-05-03T00:04:42.153Z,87.85
2023-05-03T00:09:43.951Z,87.66
2023-05-03T00:14:45.943Z,89.13
2023-05-03T00:19:47.569Z,89.63
2023-05-03T00:24:51.112Z,90.50
2023-05-03T00:29:52.866Z,91.05
2023-05-03T00:34:57.802Z,91.50
2023-05-03T00:39:59.341Z,92.85
2023-05-03T00:45:01.121Z,92.64
2023-05-03T00:50:03.704Z,93.68
2023-05-03T00:55:06.421Z,93.66
2023-05-03T01:00:10.716Z,94.92
2023-05-03T01:05:12.835Z,95.61
2023-05-03T01:10:32.213Z,95.38
2023-05-03T01:15:57.101Z,96.25
2023-05-03T01:21:00.154Z,96.97
2023-05-03T01:26:15.770Z,97.73
2023-05-03T01:31:46.372Z,98.25
2023-05-03T01:36:49.567Z,98.39
2023-05-03T01:41:52.970Z,98.89
2023-05-03T01:46:54.643Z,99.75
2023-05-03T01:51:56.269Z,100.00
2023-05-03T01:56:57.894Z,100.00
2023-05-03T02:01:59.578Z,100.00
2023-05-03T02:07:01.119Z,100.00
2023-05-03T02:12:04.435Z,100.00
2023-05-03T02:17:08.545Z,100.00
2023-05-03T02:22:10.407Z,100.00
2023-05-03T02:27:11.951Z,100.00
2023-05-03T02:32:13.830Z,100.00
2023-05-03T02:37:16.406Z,100.00
2023-05-03T02:42:19.691Z,100.00
2023-05-03T02:47:22.006Z,100.00
2023-05-03T02:52:23.726Z,100.00
2023-05-03T02:57:25.648Z,100.00
2023-05-03T03:02:27.968Z,100.00
2023-05-03T03:07:30.372Z,100.00
2023-05-03T03:12:35.964Z,100.00
2023-05-03T03:17:40.563Z,100.00
2023-05-03T03:22:45.611Z,100.00
2023-05-03T03:27:47.571Z,100.00
2023-05-03T03:32:49.301Z,100.00
2023-05-03T03:37:59.321Z,100.00
2023-05-03T03:43:01.320Z,100.00
2023-05-03T03:48:03.249Z,100.00
2023-05-03T03:53:04.961Z,100.00
2023-05-03T03:58:07.508Z,100.00
2023-05-03T04:03:09.535Z,100.00
2023-05-03T04:08:11.489Z,100.00
2023-05-03T04:13:14.488Z,100.00
2023-05-03T04:18:16.310Z,100.00
2023-05-03T04:23:18.293Z,100.00
2023-05-03T04:28:20.464Z,100.00
2023-05-03T04:33:26.141Z,100.00
2023-05-03T04:38:30.426Z,100.00
2023-05-03T04:43:34.754Z,100.00
2023-05-03T04:48:36.525Z,100.00
2023-05-03T04:53:38.795Z,100.00
2023-05-03T04:58:45.557Z,100.00
2023-05-03T05:03:50.284Z,100.00
2023-05-03T05:08:56.813Z,100.00
2023-05-03T05:13:58.574Z,100.00
2023-05-03T05:19:00.335Z,100.00
2023-05-03T05:24:03.891Z,100.00
2023-05-03T05:29:06.337Z,100.00
2023-05-03T05:34:08.169Z,100.00
2023-05-03T05:39:11.967Z,100.00
2023-05-03T05:44:13.711Z,100.00
2023-05-03T05:49:16.403Z,100.00
2023-05-03T05:54:18.354Z,100.00
2023-05-03T05:59:20.397Z,100.00
2023-05-03T06:04:22.102Z,100.00
2023-05-03T06:09:25.342Z,100.00
2023-05-03T06:14:31.833Z,100.00
2023-05-03T06:19:34.084Z,100.00
2023-05-03T06:24:35.661Z,99.92
2023-05-03T06:29:37.446Z,97.75
2023-05-03T06:34:46.578Z,97.42
2023-05-03T06:39:52.437Z,96.70
2023-05-03T06:45:01.095Z,95.85
2023-05-03T06:50:03.265Z,95.18
2023-05-03T06:55:05.442Z,94.93
2023-05-03T07:00:07.706Z,95.04
2023-05-03T07:05:09.743Z,94.44
2023-05-03T07:10:11.346Z,93.96
2023-05-03T07:15:12.897Z,91.70
2023-05-03T07:20:14.590Z,87.76
2023-05-03T07:25:18.473Z,87.74
2023-05-03T07:30:20.553Z,88.18
2023-05-03T07:35:23.208Z,88.50
2023-05-03T07:40:24.851Z,87.49
2023-05-03T07:45:27.285Z,88.02
2023-05-03T07:50:29.194Z,87.19
2023-05-03T07:55:32.920Z,86.33
2023-05-03T08:00:34.486Z,85.55
2023-05-03T08:05:36.724Z,84.39
2023-05-03T08:10:38.366Z,84.02
2023-05-03T08:15:40.108Z,83.39
2023-05-03T08:20:42.235Z,82.98
2023-05-03T08:32:04.920Z,84.07
2023-05-03T08:37:10.605Z,82.36
2023-05-03T08:42:12.271Z,80.74
2023-05-03T08:47:17.372Z,79.22
2023-05-03T08:59:17.832Z,80.99
2023-05-03T09:04:34.771Z,78.99
2023-05-03T09:09:36.769Z,79.43
2023-05-03T09:14:46.403Z,78.92
2023-05-03T09:19:56.068Z,79.96
2023-05-03T09:25:00.372Z,77.03
2023-05-03T09:30:18.326Z,78.98
2023-05-03T09:35:23.768Z,77.34
2023-05-03T09:40:26.304Z,78.23
2023-05-03T09:45:27.911Z,77.47
2023-05-03T09:50:34.101Z,75.93
2023-05-03T09:55:37.702Z,75.93
2023-05-03T10:00:41.947Z,76.11
2023-05-03T10:05:47.698Z,73.43
2023-05-03T10:10:54.262Z,75.39
2023-05-03T10:16:21.466Z,72.64
2023-05-03T10:21:38.130Z,72.31
2023-05-03T10:26:50.969Z,71.67
2023-05-03T10:31:52.956Z,72.17
2023-05-03T10:36:54.681Z,70.50
2023-05-03T10:42:03.121Z,72.82
2023-05-03T10:47:16.078Z,69.15
2023-05-03T10:52:36.134Z,68.42
2023-05-03T10:57:40.628Z,68.73
2023-05-03T11:03:13.377Z,67.47
2023-05-03T11:08:20.991Z,65.18
2023-05-03T11:13:22.873Z,64.31
2023-05-03T11:18:27.582Z,66.13
2023-05-03T11:23:29.774Z,66.24
2023-05-03T11:28:31.365Z,63.12
2023-05-03T11:33:35.219Z,64.83
2023-05-03T11:38:39.388Z,63.40
2023-05-03T11:43:45.531Z,62.83
2023-05-03T11:48:47.440Z,63.33
2023-05-03T11:53:49.230Z,64.28
2023-05-03T11:58:58.740Z,64.34
2023-05-03T12:04:05.834Z,62.31
2023-05-03T12:09:15.104Z,62.22
2023-05-03T12:14:17.317Z,64.05
2023-05-03T12:19:31.723Z,60.87
2023-05-03T12:24:34.631Z,61.03
2023-05-03T12:29:37.028Z,61.38
2023-05-03T12:34:41.319Z,60.78
2023-05-03T12:39:46.184Z,59.36
2023-05-03T12:44:53.692Z,61.98
2023-05-03T12:49:59.391Z,59.98
2023-05-03T12:55:03.807Z,59.94
2023-05-03T13:00:14.743Z,59.58
2023-05-03T13:05:33.323Z,60.87
2023-05-03T13:10:37.807Z,60.08
2023-05-03T13:15:40.261Z,58.98
2023-05-03T13:20:41.940Z,59.13
2023-05-03T13:25:44.458Z,58.11
2023-05-03T13:30:46.018Z,58.40
2023-05-03T13:35:48.349Z,56.33
2023-05-03T13:40:49.977Z,54.98
2023-05-03T13:45:52.795Z,55.21
2023-05-03T13:50:54.455Z,55.90
2023-05-03T13:55:56.502Z,55.40
2023-05-03T14:00:58.271Z,55.54
2023-05-03T14:05:59.917Z,54.57
2023-05-03T14:11:02.825Z,54.80
2023-05-03T14:16:06.556Z,54.46
2023-05-03T14:21:08.301Z,54.24
2023-05-03T14:26:10.095Z,54.12
2023-05-03T14:31:12.925Z,53.80
2023-05-03T14:36:14.447Z,52.83
2023-05-03T14:41:16.183Z,53.59
2023-05-03T14:46:17.985Z,52.68
2023-05-03T14:51:19.631Z,53.99
2023-05-03T14:56:21.254Z,53.61
2023-05-03T15:01:22.907Z,53.03
2023-05-03T15:06:31.591Z,52.39
2023-05-03T15:11:33.395Z,52.04
2023-05-03T15:16:37.189Z,51.92
2023-05-03T15:21:49.375Z,52.19
2023-05-03T15:26:51.572Z,52.19
2023-05-03T15:31:53.126Z,52.05
2023-05-03T15:36:54.897Z,51.26
2023-05-03T15:41:56.565Z,51.55
2023-05-03T15:46:58.159Z,51.45
2023-05-03T15:52:00.148Z,52.39
2023-05-03T15:57:05.140Z,52.75
2023-05-03T16:02:07.539Z,51.79
2023-05-03T16:07:09.229Z,52.03
2023-05-03T16:12:13.252Z,52.15
2023-05-03T16:17:14.864Z,52.37
2023-05-03T16:22:16.921Z,51.95
2023-05-03T16:27:18.533Z,51.87
2023-05-03T16:32:20.090Z,52.36
2023-05-03T16:37:21.805Z,51.80
2023-05-03T16:42:23.340Z,51.66
2023-05-03T16:47:24.895Z,52.04
2023-05-03T16:52:27.642Z,52.47
2023-05-03T16:57:29.779Z,52.09
2023-05-03T17:02:32.690Z,51.40
2023-05-03T17:07:35.641Z,52.12
2023-05-03T17:12:37.427Z,51.65
2023-05-03T17:17:39.002Z,52.40
2023-05-03T17:22:40.629Z,52.54
2023-05-03T17:27:43.681Z,53.30
2023-05-03T17:32:45.696Z,52.69
2023-05-03T17:37:47.388Z,53.12
2023-05-03T17:42:49.156Z,52.51
2023-05-03T17:47:50.857Z,53.02
2023-05-03T17:52:52.522Z,53.21
2023-05-03T17:57:54.257Z,53.27
2023-05-03T18:02:56.326Z,52.53
2023-05-03T18:07:57.956Z,53.28
2023-05-03T18:12:59.618Z,53.95
2023-05-03T18:18:01.234Z,53.75
2023-05-03T18:23:02.831Z,54.09
2023-05-03T18:28:05.975Z,55.19
2023-05-03T18:33:07.682Z,56.15
2023-05-03T18:38:10.102Z,55.98
2023-05-03T18:43:11.991Z,56.48
2023-05-03T18:48:13.702Z,57.00
2023-05-03T18:53:15.281Z,56.85
2023-05-03T18:58:17.350Z,57.70
2023-05-03T19:03:18.961Z,58.34
2023-05-03T19:08:20.745Z,59.01
2023-05-03T19:13:22.336Z,59.74
2023-05-03T19:18:24.414Z,60.40
2023-05-03T19:23:26.046Z,61.14
2023-05-03T19:28:27.837Z,61.81
2023-05-03T19:33:29.411Z,61.89
2023-05-03T19:38:31.121Z,63.05
2023-05-03T19:43:32.849Z,63.60
2023-05-03T19:48:34.491Z,64.26
2023-05-03T19:53:37.727Z,64.69
2023-05-03T19:58:39.609Z,65.05
2023-05-03T20:03:42.610Z,65.92
2023-05-03T20:08:44.447Z,66.18
2023-05-03T20:13:46.796Z,66.75
2023-05-03T20:18:48.474Z,68.31
2023-05-03T20:23:50.314Z,68.96
2023-05-03T20:28:51.835Z,70.04
2023-05-03T20:33:53.499Z,70.51
2023-05-03T20:38:55.831Z,71.86
2023-05-03T20:43:59.208Z,71.98
2023-05-03T20:49:01.012Z,72.84
2023-05-03T20:54:03.530Z,73.55
2023-05-03T20:59:05.291Z,74.19
2023-05-03T21:04:07.463Z,74.61
2023-05-03T21:09:09.084Z,74.60
2023-05-03T21:14:11.920Z,75.01
2023-05-03T21:19:13.539Z,75.43
2023-05-03T21:24:15.176Z,75.76
2023-05-03T21:29:17.322Z,75.40
2023-05-03T21:34:18.884Z,76.57
2023-05-03T21:39:21.467Z,76.49
2023-05-03T21:44:23.206Z,76.97
2023-05-03T21:49:24.911Z,78.48
2023-05-03T21:54:26.952Z,79.59
2023-05-03T21:59:28.512Z,79.59
2023-05-03T22:04:31.019Z,80.18
2023-05-03T22:09:32.715Z,80.83
2023-05-03T22:14:34.324Z,81.13
2023-05-03T22:19:38.251Z,82.43
2023-05-03T22:24:40.831Z,82.28
2023-05-03T22:29:42.669Z,83.11
2023-05-03T22:34:45.078Z,83.55
2023-05-03T22:39:46.832Z,83.23
2023-05-03T22:44:48.394Z,84.50
2023-05-03T22:49:50.459Z,84.26
2023-05-03T22:54:56.883Z,84.53
2023-05-03T22:59:59.537Z,84.66
2023-05-03T23:05:01.987Z,84.71
2023-05-03T23:10:06.276Z,85.03
2023-05-03T23:15:08.533Z,85.48
2023-05-03T23:20:11.011Z,85.59
2023-05-03T23:25:12.666Z,85.50
2023-05-03T23:30:14.706Z,86.53
2023-05-03T23:35:16.780Z,86.23
2023-05-03T23:40:18.553Z,87.22
2023-05-03T23:45:20.351Z,87.44
2023-05-03T23:50:22.148Z,87.38
2023-05-03T23:55:23.778Z,87.38
